createdAt,value
2019-04-04T00:02:17.075Z,99.90
2019-04-04T00:04:46.079Z,99.90
2019-04-04T00:07:14.532Z,99.90
2019-04-04T00:09:43.117Z,99.90
2019-04-04T00:12:11.544Z,99.90
2019-04-04T00:14:39.965Z,99.90
2019-04-04T00:17:08.401Z,99.90
2019-04-04T00:19:36.810Z,99.90
2019-04-04T00:22:05.574Z,99.90
2019-04-04T00:24:34.172Z,99.90
2019-04-04T00:27:02.589Z,99.90
2019-04-04T00:29:31.022Z,99.90
2019-04-04T00:31:59.614Z,99.90
2019-04-04T00:34:28.720Z,99.90
2019-04-04T00:36:57.243Z,99.90
2019-04-04T00:39:25.853Z,99.90
2019-04-04T00:41:54.270Z,99.90
2019-04-04T00:44:23.041Z,99.90
2019-04-04T00:46:52.195Z,99.90
2019-04-04T00:49:20.650Z,99.90
2019-04-04T00:51:49.120Z,99.90
2019-04-04T00:54:17.638Z,99.90
2019-04-04T00:56:46.896Z,99.90
2019-04-04T00:59:16.488Z,99.90
2019-04-04T01:01:45.102Z,99.90
2019-04-04T01:04:13.514Z,99.90
2019-04-04T01:06:41.917Z,99.90
2019-04-04T01:09:13.117Z,99.90
2019-04-04T01:11:40.485Z,99.90
2019-04-04T01:14:08.893Z,99.90
2019-04-04T01:16:37.350Z,99.90
2019-04-04T01:19:05.755Z,99.90
2019-04-04T01:21:34.167Z,99.90
2019-04-04T01:24:02.732Z,99.90
2019-04-04T01:26:31.134Z,99.90
2019-04-04T01:28:59.556Z,99.90
2019-04-04T01:31:28.073Z,99.90
2019-04-04T01:33:56.481Z,99.90
2019-04-04T01:36:25.189Z,99.90
2019-04-04T01:38:54.434Z,99.90
2019-04-04T01:41:22.838Z,99.90
2019-04-04T01:43:51.253Z,99.90
2019-04-04T01:46:19.808Z,99.90
2019-04-04T01:48:50.052Z,99.90
2019-04-04T01:51:18.393Z,99.90
2019-04-04T01:53:46.865Z,99.90
2019-04-04T01:56:15.281Z,99.90
2019-04-04T01:58:43.690Z,99.90
2019-04-04T02:01:12.502Z,99.90
2019-04-04T02:03:40.903Z,99.90
2019-04-04T02:06:09.321Z,99.90
2019-04-04T02:08:37.780Z,99.90
2019-04-04T02:11:06.262Z,99.90
2019-04-04T02:13:34.705Z,99.90
2019-04-04T02:16:03.141Z,99.90
2019-04-04T02:18:31.562Z,99.90
2019-04-04T02:20:59.966Z,99.90
2019-04-04T02:23:31.377Z,99.90
2019-04-04T02:25:58.557Z,99.90
2019-04-04T02:28:26.978Z,99.90
2019-04-04T02:30:55.643Z,99.90
2019-04-04T02:33:24.059Z,99.90
2019-04-04T02:35:52.482Z,99.90
2019-04-04T02:38:21.180Z,99.90
2019-04-04T02:40:49.637Z,99.90
2019-04-04T02:43:18.151Z,99.90
2019-04-04T02:45:46.717Z,99.90
2019-04-04T02:48:15.549Z,99.90
2019-04-04T02:50:44.393Z,99.90
2019-04-04T02:53:13.067Z,99.90
2019-04-04T02:55:41.599Z,99.90
2019-04-04T02:58:13.934Z,99.90
2019-04-04T03:00:40.509Z,99.90
2019-04-04T03:03:09.470Z,99.90
2019-04-04T03:05:38.032Z,99.90
2019-04-04T03:08:06.484Z,99.90
2019-04-04T03:10:35.097Z,99.90
2019-04-04T03:13:03.617Z,99.90
2019-04-04T03:15:32.279Z,99.90
2019-04-04T03:18:04.118Z,99.90
2019-04-04T03:20:30.885Z,99.90
2019-04-04T03:23:00.616Z,99.90
2019-04-04T03:25:29.561Z,99.90
2019-04-04T03:27:59.161Z,99.90
2019-04-04T03:30:28.033Z,99.90
2019-04-04T03:32:56.454Z,99.90
2019-04-04T03:35:27.865Z,99.90
2019-04-04T03:37:55.053Z,99.90
2019-04-04T03:40:25.602Z,99.90
2019-04-04T03:42:53.628Z,99.90
2019-04-04T03:45:26.058Z,99.90
2019-04-04T03:47:52.339Z,99.90
2019-04-04T03:50:20.748Z,99.90
2019-04-04T03:52:49.209Z,99.90
2019-04-04T03:55:17.712Z,99.90
2019-04-04T03:57:46.111Z,99.90
2019-04-04T04:00:25.481Z,99.90
2019-04-04T04:02:54.091Z,99.90
2019-04-04T04:05:34.178Z,99.90
2019-04-04T04:08:00.550Z,99.90
2019-04-04T04:10:32.003Z,99.90
2019-04-04T04:12:59.287Z,99.90
2019-04-04T04:15:30.375Z,99.90
2019-04-04T04:17:57.928Z,99.90
2019-04-04T04:20:26.597Z,99.90
2019-04-04T04:22:54.991Z,99.90
2019-04-04T04:25:23.461Z,99.90
2019-04-04T04:27:51.961Z,99.90
2019-04-04T04:30:20.362Z,99.90
2019-04-04T04:32:49.045Z,99.90
2019-04-04T04:35:17.518Z,99.90
2019-04-04T04:37:45.930Z,99.90
2019-04-04T04:40:15.397Z,99.90
2019-04-04T04:42:44.063Z,99.90
2019-04-04T04:45:12.718Z,99.90
2019-04-04T04:47:41.170Z,99.90
2019-04-04T04:50:10.054Z,99.90
2019-04-04T04:52:38.517Z,99.90
2019-04-04T04:55:07.199Z,99.90
2019-04-04T04:57:37.121Z,99.90
2019-04-04T05:00:07.062Z,99.90
2019-04-04T05:02:35.494Z,99.90
2019-04-04T05:05:05.693Z,99.90
2019-04-04T05:07:34.158Z,99.90
2019-04-04T05:10:02.698Z,99.90
2019-04-04T05:12:31.155Z,99.90
2019-04-04T05:15:01.413Z,99.90
2019-04-04T05:17:29.889Z,99.90
2019-04-04T05:19:58.366Z,99.90
2019-04-04T05:22:26.841Z,99.90
2019-04-04T05:25:08.107Z,99.90
2019-04-04T05:27:25.461Z,99.90
2019-04-04T05:29:54.286Z,99.90
2019-04-04T05:32:22.796Z,99.90
2019-04-04T05:34:51.219Z,99.90
2019-04-04T05:37:19.946Z,99.90
2019-04-04T05:39:51.020Z,99.90
2019-04-04T05:42:18.563Z,99.90
2019-04-04T05:44:47.062Z,99.90
2019-04-04T05:47:15.584Z,99.90
2019-04-04T05:49:44.024Z,99.90
2019-04-04T05:52:12.566Z,99.90
2019-04-04T05:54:40.985Z,99.90
2019-04-04T05:57:09.414Z,99.90
2019-04-04T05:59:38.054Z,99.90
2019-04-04T06:02:06.796Z,99.90
2019-04-04T06:04:35.240Z,99.90
2019-04-04T06:07:04.432Z,99.90
2019-04-04T06:09:33.505Z,99.90
2019-04-04T06:12:02.161Z,99.90
2019-04-04T06:14:30.705Z,99.90
2019-04-04T06:16:59.145Z,99.90
2019-04-04T06:19:27.566Z,99.90
2019-04-04T06:21:56.048Z,99.90
2019-04-04T06:24:25.186Z,99.90
2019-04-04T06:26:55.088Z,99.90
2019-04-04T06:29:23.740Z,99.90
2019-04-04T06:31:52.241Z,99.90
2019-04-04T06:34:20.656Z,99.90
2019-04-04T06:36:49.683Z,99.90
2019-04-04T06:39:18.197Z,99.90
2019-04-04T06:41:46.628Z,99.90
2019-04-04T06:44:15.297Z,99.90
2019-04-04T06:46:43.741Z,99.90
2019-04-04T06:49:12.184Z,99.90
2019-04-04T06:51:40.745Z,99.90
2019-04-04T06:54:09.187Z,99.90
2019-04-04T06:56:37.614Z,99.90
2019-04-04T06:59:06.237Z,99.90
2019-04-04T07:01:34.737Z,99.90
2019-04-04T07:04:03.146Z,99.90
2019-04-04T07:06:31.652Z,99.90
2019-04-04T07:09:00.115Z,99.90
2019-04-04T07:11:28.577Z,99.90
2019-04-04T07:13:58.929Z,99.90
2019-04-04T07:16:27.178Z,99.90
2019-04-04T07:18:55.644Z,99.90
2019-04-04T07:21:24.124Z,99.90
2019-04-04T07:23:52.616Z,99.90
2019-04-04T07:26:21.030Z,99.90
2019-04-04T07:28:53.645Z,99.90
2019-04-04T07:31:19.810Z,99.90
2019-04-04T07:33:48.426Z,99.90
2019-04-04T07:36:18.171Z,99.90
2019-04-04T07:38:47.158Z,99.90
2019-04-04T07:41:15.590Z,99.90
2019-04-04T07:43:44.186Z,99.90
2019-04-04T07:46:16.890Z,99.90
2019-04-04T07:48:42.731Z,99.90
2019-04-04T07:51:11.306Z,99.90
2019-04-04T07:53:39.710Z,99.90
2019-04-04T07:56:08.148Z,99.90
2019-04-04T07:58:36.680Z,98.00
2019-04-04T08:01:05.372Z,92.20
2019-04-04T08:03:33.899Z,90.30
2019-04-04T08:06:02.383Z,80.80
2019-04-04T08:08:30.804Z,73.00
2019-04-04T08:10:59.284Z,69.10
2019-04-04T08:13:27.810Z,69.00
2019-04-04T08:15:56.265Z,65.60
2019-04-04T08:18:24.677Z,64.20
2019-04-04T08:20:53.573Z,60.00
2019-04-04T08:23:21.995Z,58.70
2019-04-04T08:25:50.478Z,53.60
2019-04-04T08:28:19.064Z,53.30
2019-04-04T08:30:47.514Z,52.90
2019-04-04T08:33:16.005Z,52.50
2019-04-04T08:35:44.503Z,51.70
2019-04-04T08:38:12.909Z,51.20
2019-04-04T08:40:41.321Z,50.70
2019-04-04T08:43:09.799Z,49.80
2019-04-04T08:45:38.214Z,48.90
2019-04-04T08:48:06.678Z,48.30
2019-04-04T08:50:35.232Z,48.70
2019-04-04T08:53:03.637Z,48.40
2019-04-04T08:55:32.074Z,50.00
2019-04-04T08:58:00.637Z,48.00
2019-04-04T09:00:29.100Z,47.50
2019-04-04T09:02:57.501Z,48.50
2019-04-04T09:05:26.515Z,48.40
2019-04-04T09:07:54.921Z,48.50
2019-04-04T09:10:23.351Z,47.50
2019-04-04T09:12:51.893Z,45.60
2019-04-04T09:15:20.496Z,45.70
2019-04-04T09:17:48.939Z,45.90
2019-04-04T09:20:17.453Z,45.00
2019-04-04T09:22:45.882Z,45.10
2019-04-04T09:25:14.499Z,45.00
2019-04-04T09:27:43.147Z,44.30
2019-04-04T09:30:13.110Z,44.90
2019-04-04T09:32:41.521Z,43.60
2019-04-04T09:35:10.388Z,44.10
2019-04-04T09:37:38.871Z,45.10
2019-04-04T09:40:08.052Z,43.30
2019-04-04T09:42:36.672Z,42.50
2019-04-04T09:45:07.550Z,42.20
2019-04-04T09:47:36.025Z,41.10
2019-04-04T09:50:07.388Z,42.50
2019-04-04T09:52:35.793Z,42.20
2019-04-04T09:55:06.356Z,40.30
2019-04-04T09:57:34.898Z,40.60
2019-04-04T10:00:12.381Z,40.20
2019-04-04T10:02:41.158Z,39.20
2019-04-04T10:05:10.636Z,39.10
2019-04-04T10:07:39.061Z,39.60
2019-04-04T10:10:09.150Z,39.40
2019-04-04T10:12:37.618Z,37.70
2019-04-04T10:15:07.716Z,37.20
2019-04-04T10:17:36.182Z,39.20
2019-04-04T10:20:06.492Z,36.90
2019-04-04T10:22:34.959Z,38.00
2019-04-04T10:25:04.204Z,37.70
2019-04-04T10:27:32.618Z,36.80
2019-04-04T10:30:01.085Z,37.50
2019-04-04T10:32:29.510Z,36.70
2019-04-04T10:34:57.998Z,36.10
2019-04-04T10:37:26.410Z,38.90
2019-04-04T10:39:55.034Z,39.40
2019-04-04T10:42:23.459Z,39.70
2019-04-04T10:44:51.862Z,37.90
2019-04-04T10:47:20.528Z,36.70
2019-04-04T10:49:48.997Z,36.90
2019-04-04T10:52:17.467Z,36.20
2019-04-04T10:54:45.966Z,33.50
2019-04-04T10:57:14.430Z,35.10
2019-04-04T10:59:42.845Z,37.50
2019-04-04T11:02:11.456Z,38.50
2019-04-04T11:04:39.993Z,35.80
2019-04-04T11:07:08.515Z,35.90
2019-04-04T11:09:42.079Z,36.50
2019-04-04T11:12:07.209Z,37.30
2019-04-04T11:14:35.661Z,38.70
2019-04-04T11:17:04.524Z,39.50
2019-04-04T11:19:32.950Z,39.50
2019-04-04T11:22:01.359Z,39.30
2019-04-04T11:24:29.925Z,38.60
2019-04-04T11:27:01.141Z,38.10
2019-04-04T11:29:29.559Z,38.60
2019-04-04T11:31:58.045Z,36.00
2019-04-04T11:34:26.510Z,37.40
2019-04-04T11:36:54.964Z,35.20
2019-04-04T11:39:23.801Z,36.20
2019-04-04T11:41:52.222Z,35.80
2019-04-04T11:44:20.648Z,37.60
2019-04-04T11:46:49.100Z,37.10
2019-04-04T11:49:17.520Z,37.20
2019-04-04T11:51:45.970Z,38.10
2019-04-04T11:54:14.558Z,38.30
2019-04-04T11:56:42.995Z,38.60
2019-04-04T11:59:11.394Z,40.20
2019-04-04T12:01:41.822Z,40.20
2019-04-04T12:04:10.277Z,40.80
2019-04-04T12:06:38.973Z,40.00
2019-04-04T12:09:07.956Z,39.60
2019-04-04T12:11:36.412Z,40.30
2019-04-04T12:14:05.501Z,40.70
2019-04-04T12:16:34.478Z,38.30
2019-04-04T12:19:02.963Z,41.00
2019-04-04T12:21:31.398Z,42.50
2019-04-04T12:24:00.011Z,43.10
2019-04-04T12:26:28.421Z,43.20
2019-04-04T12:28:56.985Z,44.60
2019-04-04T12:31:25.624Z,46.20
2019-04-04T12:33:56.496Z,47.80
2019-04-04T12:36:25.382Z,47.50
2019-04-04T12:38:54.240Z,47.20
2019-04-04T12:41:22.692Z,47.10
2019-04-04T12:43:51.144Z,48.00
2019-04-04T12:46:19.674Z,48.00
2019-04-04T12:48:48.090Z,49.00
2019-04-04T12:51:16.502Z,48.30
2019-04-04T12:53:45.150Z,47.90
2019-04-04T12:56:13.570Z,49.70
2019-04-04T12:58:41.994Z,48.00
2019-04-04T13:01:10.502Z,48.00
2019-04-04T13:03:38.953Z,46.90
2019-04-04T13:06:07.405Z,47.40
2019-04-04T13:08:36.430Z,46.70
2019-04-04T13:11:04.962Z,47.90
2019-04-04T13:13:33.858Z,47.90
2019-04-04T13:16:02.309Z,47.60
2019-04-04T13:18:30.718Z,47.30
2019-04-04T13:20:59.147Z,46.70
2019-04-04T13:23:27.859Z,46.50
2019-04-04T13:25:56.286Z,47.30
2019-04-04T13:28:24.760Z,47.30
2019-04-04T13:30:53.206Z,45.90
2019-04-04T13:33:23.518Z,45.60
2019-04-04T13:35:52.002Z,46.50
2019-04-04T13:38:20.613Z,45.50
2019-04-04T13:40:49.234Z,44.30
2019-04-04T13:43:17.672Z,45.50
2019-04-04T13:45:46.418Z,46.20
2019-04-04T13:48:14.833Z,45.70
2019-04-04T13:50:43.254Z,45.10
2019-04-04T13:53:11.715Z,43.70
2019-04-04T13:55:40.165Z,44.30
2019-04-04T13:58:08.696Z,43.90
2019-04-04T14:00:37.371Z,43.50
2019-04-04T14:03:05.824Z,44.30
2019-04-04T14:05:34.269Z,42.90
2019-04-04T14:08:03.064Z,43.30
2019-04-04T14:10:31.520Z,43.90
2019-04-04T14:12:59.929Z,43.60
2019-04-04T14:15:28.416Z,45.00
2019-04-04T14:17:56.841Z,46.70
2019-04-04T14:20:25.275Z,47.80
2019-04-04T14:22:53.900Z,47.30
2019-04-04T14:25:22.334Z,47.50
2019-04-04T14:27:50.971Z,48.20
2019-04-04T14:30:19.992Z,48.80
2019-04-04T14:32:48.488Z,48.90
2019-04-04T14:35:16.940Z,49.60
2019-04-04T14:37:45.394Z,50.30
2019-04-04T14:40:14.230Z,50.80
2019-04-04T14:42:42.773Z,52.30
2019-04-04T14:45:12.324Z,52.80
2019-04-04T14:47:40.797Z,53.90
2019-04-04T14:50:09.467Z,54.50
2019-04-04T14:52:39.558Z,54.60
2019-04-04T14:55:08.276Z,54.80
2019-04-04T14:57:36.709Z,54.70
2019-04-04T15:00:12.190Z,54.80
2019-04-04T15:02:40.690Z,55.30
2019-04-04T15:05:09.321Z,55.70
2019-04-04T15:07:40.204Z,56.20
2019-04-04T15:10:08.800Z,56.20
2019-04-04T15:12:37.465Z,55.90
2019-04-04T15:15:06.704Z,55.70
2019-04-04T15:17:35.462Z,55.70
2019-04-04T15:20:05.124Z,55.90
2019-04-04T15:22:33.762Z,56.20
2019-04-04T15:25:02.221Z,57.10
2019-04-04T15:27:30.623Z,58.40
2019-04-04T15:29:59.229Z,59.10
2019-04-04T15:32:27.650Z,59.20
2019-04-04T15:34:56.082Z,60.00
2019-04-04T15:37:24.983Z,60.50
2019-04-04T15:39:53.462Z,60.80
2019-04-04T15:42:21.925Z,62.10
2019-04-04T15:44:50.576Z,63.90
2019-04-04T15:47:18.989Z,65.80
2019-04-04T15:49:48.965Z,67.30
2019-04-04T15:52:17.475Z,72.50
2019-04-04T15:54:45.903Z,77.10
2019-04-04T15:57:15.790Z,84.50
2019-04-04T15:59:44.508Z,91.40
2019-04-04T16:02:13.058Z,94.30
2019-04-04T16:04:42.697Z,97.10
2019-04-04T16:07:11.482Z,99.50
2019-04-04T16:09:39.978Z,99.90
2019-04-04T16:12:08.408Z,99.90
2019-04-04T16:14:37.684Z,99.90
2019-04-04T16:17:06.375Z,99.90
2019-04-04T16:19:36.290Z,99.90
2019-04-04T16:22:04.847Z,99.90
2019-04-04T16:24:33.297Z,99.90
2019-04-04T16:27:04.747Z,99.90
2019-04-04T16:29:33.367Z,99.90
2019-04-04T16:32:01.860Z,99.90
2019-04-04T16:34:30.292Z,99.90
2019-04-04T16:36:58.787Z,99.90
2019-04-04T16:39:27.249Z,99.90
2019-04-04T16:42:02.061Z,99.90
2019-04-04T16:44:25.974Z,99.90
2019-04-04T16:46:54.398Z,99.90
2019-04-04T16:49:22.819Z,99.90
2019-04-04T16:51:51.400Z,99.90
2019-04-04T16:54:19.818Z,99.90
2019-04-04T16:56:48.254Z,99.90
2019-04-04T16:59:16.759Z,99.90
2019-04-04T17:01:45.212Z,99.90
2019-04-04T17:04:13.645Z,99.90
2019-04-04T17:06:42.173Z,99.90
2019-04-04T17:09:10.855Z,99.90
2019-04-04T17:11:39.310Z,99.90
2019-04-04T17:14:08.021Z,99.90
2019-04-04T17:16:36.450Z,99.90
2019-04-04T17:19:05.110Z,99.90
2019-04-04T17:21:33.913Z,99.90
2019-04-04T17:24:02.352Z,99.90
2019-04-04T17:26:30.763Z,99.90
2019-04-04T17:28:59.365Z,99.90
2019-04-04T17:31:27.805Z,99.90
2019-04-04T17:33:56.307Z,99.90
2019-04-04T17:36:24.876Z,99.90
2019-04-04T17:38:55.066Z,99.90
2019-04-04T17:41:23.822Z,99.90
2019-04-04T17:43:52.845Z,99.90
2019-04-04T17:46:21.941Z,99.90
2019-04-04T17:48:50.557Z,99.90
2019-04-04T17:51:19.195Z,99.90
2019-04-04T17:53:47.956Z,99.90
2019-04-04T17:56:16.778Z,99.90
2019-04-04T17:58:45.463Z,99.90
2019-04-04T18:01:13.897Z,99.90
2019-04-04T18:03:42.483Z,99.90
2019-04-04T18:06:11.442Z,99.90
2019-04-04T18:08:39.864Z,99.90
2019-04-04T18:11:08.409Z,99.90
2019-04-04T18:13:37.108Z,99.90
2019-04-04T18:16:05.677Z,99.90
2019-04-04T18:18:34.083Z,99.90
2019-04-04T18:21:02.517Z,99.90
2019-04-04T18:23:30.933Z,99.90
2019-04-04T18:25:59.423Z,99.90
2019-04-04T18:28:27.933Z,99.90
2019-04-04T18:30:56.362Z,99.90
2019-04-04T18:33:25.198Z,99.90
2019-04-04T18:35:54.273Z,99.90
2019-04-04T18:38:22.919Z,99.90
2019-04-04T18:40:51.423Z,99.90
2019-04-04T18:43:20.036Z,99.90
2019-04-04T18:45:48.519Z,99.90
2019-04-04T18:48:16.951Z,99.90
2019-04-04T18:50:45.590Z,99.90
2019-04-04T18:53:14.018Z,99.90
2019-04-04T18:55:42.488Z,99.90
2019-04-04T18:58:10.991Z,99.90
2019-04-04T19:00:39.510Z,99.90
2019-04-04T19:03:07.978Z,99.90
2019-04-04T19:05:36.729Z,99.90
2019-04-04T19:08:05.301Z,99.90
2019-04-04T19:10:33.822Z,99.90
2019-04-04T19:13:05.550Z,99.90
2019-04-04T19:15:32.507Z,99.90
2019-04-04T19:18:00.969Z,99.90
2019-04-04T19:20:29.576Z,99.90
2019-04-04T19:22:57.986Z,99.90
2019-04-04T19:25:26.427Z,99.90
2019-04-04T19:27:54.930Z,99.90
2019-04-04T19:30:23.533Z,99.90
2019-04-04T19:32:51.958Z,99.90
2019-04-04T19:35:20.585Z,99.90
2019-04-04T19:37:59.428Z,99.90
2019-04-04T19:40:19.600Z,99.90
2019-04-04T19:42:48.118Z,99.90
2019-04-04T19:45:17.259Z,99.90
2019-04-04T19:47:45.716Z,99.90
2019-04-04T19:50:14.562Z,99.90
2019-04-04T19:52:43.020Z,99.90
2019-04-04T19:57:45.716Z,99.90
2019-04-04T20:00:16.292Z,99.90
2019-04-04T20:02:44.760Z,99.90
2019-04-04T20:05:13.827Z,99.90
2019-04-04T20:07:42.254Z,99.90
2019-04-04T20:10:10.915Z,99.90
2019-04-04T20:12:39.375Z,99.90
2019-04-04T20:15:08.533Z,99.90
2019-04-04T20:17:36.946Z,99.90
2019-04-04T20:20:07.672Z,99.90
2019-04-04T20:22:36.082Z,99.90
2019-04-04T20:25:06.334Z,99.90
2019-04-04T20:27:34.900Z,99.90
2019-04-04T20:30:04.937Z,99.90
2019-04-04T20:32:33.356Z,99.90
2019-04-04T20:35:01.783Z,99.90
2019-04-04T20:37:30.198Z,99.90
2019-04-04T20:39:58.610Z,99.90
2019-04-04T20:42:27.143Z,99.90
2019-04-04T20:44:55.579Z,99.90
2019-04-04T20:47:23.984Z,99.90
2019-04-04T20:49:52.442Z,99.90
2019-04-04T20:52:20.892Z,99.90
2019-04-04T20:54:49.412Z,99.90
2019-04-04T20:57:18.153Z,99.90
2019-04-04T20:59:46.698Z,99.90
2019-04-04T21:02:15.106Z,99.90
2019-04-04T21:04:43.715Z,99.90
2019-04-04T21:07:12.167Z,99.90
2019-04-04T21:09:40.612Z,99.90
2019-04-04T21:12:11.283Z,99.90
2019-04-04T21:14:39.233Z,99.90
2019-04-04T21:17:07.638Z,99.90
2019-04-04T21:19:36.211Z,99.90
2019-04-04T21:22:04.642Z,99.90
2019-04-04T21:24:33.050Z,99.90
2019-04-04T21:27:01.706Z,99.90
2019-04-04T21:29:30.110Z,99.90
2019-04-04T21:31:58.528Z,99.90
2019-04-04T21:34:26.965Z,99.90
2019-04-04T21:36:55.373Z,99.90
2019-04-04T21:39:23.810Z,99.90
2019-04-04T21:41:52.287Z,99.90
2019-04-04T21:44:20.711Z,99.90
2019-04-04T21:46:49.128Z,99.90
2019-04-04T21:49:17.589Z,99.90
2019-04-04T21:51:46.054Z,99.90
2019-04-04T21:54:14.513Z,99.90
2019-04-04T21:56:43.035Z,99.90
2019-04-04T21:59:11.502Z,99.90
2019-04-04T22:01:40.280Z,99.90
2019-04-04T22:04:08.810Z,99.90
2019-04-04T22:06:37.286Z,99.90
2019-04-04T22:09:08.732Z,99.90
2019-04-04T22:11:37.237Z,99.90
2019-04-04T22:14:05.646Z,99.90
2019-04-04T22:16:34.079Z,99.90
2019-04-04T22:19:02.507Z,99.90
2019-04-04T22:21:30.931Z,99.90
2019-04-04T22:23:59.333Z,99.90
2019-04-04T22:26:27.882Z,99.90
2019-04-04T22:28:56.331Z,99.90
2019-04-04T22:31:24.745Z,99.90
2019-04-04T22:33:53.186Z,99.90
2019-04-04T22:36:21.613Z,99.90
2019-04-04T22:38:50.038Z,99.90
2019-04-04T22:41:18.503Z,99.90
2019-04-04T22:43:46.964Z,99.90
2019-04-04T22:46:15.451Z,99.90
2019-04-04T22:48:44.044Z,99.90
2019-04-04T22:51:12.474Z,99.90
2019-04-04T22:53:40.890Z,99.90
2019-04-04T22:56:09.619Z,99.90
2019-04-04T22:58:38.060Z,99.90
2019-04-04T23:01:06.899Z,99.90
2019-04-04T23:03:35.506Z,99.90
2019-04-04T23:06:04.004Z,99.90
2019-04-04T23:08:32.408Z,99.90
2019-04-04T23:11:00.861Z,99.90
2019-04-04T23:13:29.307Z,99.90
2019-04-04T23:15:57.726Z,99.90
2019-04-04T23:18:26.207Z,99.90
2019-04-04T23:20:54.736Z,99.90
2019-04-04T23:23:23.154Z,99.90
2019-04-04T23:25:51.773Z,99.90
2019-04-04T23:28:20.189Z,99.90
2019-04-04T23:30:48.618Z,99.90
2019-04-04T23:33:17.482Z,99.90
2019-04-04T23:35:45.941Z,99.90
2019-04-04T23:38:14.361Z,99.90
2019-04-04T23:40:42.878Z,99.90
2019-04-04T23:43:11.303Z,99.90
2019-04-04T23:45:39.726Z,99.90
2019-04-04T23:48:08.227Z,99.90
2019-04-04T23:50:36.677Z,99.90
2019-04-04T23:53:05.188Z,99.90
2019-04-04T23:55:33.900Z,99.90
2019-04-04T23:58:02.318Z,99.90
